Time;durP1;ratioP1;P1;durP2;ratioP2;P2;SDS_P1;SDS_P2;PMS_P1;PMS_P2;Temp;Humidity;BMP_temperature;BMP_pressure;BME280_temperature;BME280_humidity;BME280_pressure;Samples;Min_cycle;Max_cycle;Signal;HPM_P1;HPM_P2
2023/03/17 00:03:41;;;;;;;10.18;5.28;;;11.00;42.00;;;;;;5071878;28;20057;-74
2023/03/17 00:06:23;;;;;;;10.35;4.97;;;11.00;41.60;;;;;;5073482;28;20036;-74
2023/03/17 00:08:49;;;;;;;9.02;4.72;;;11.10;41.60;;;;;;5073444;28;20056;-75
2023/03/17 00:11:16;;;;;;;10.55;4.93;;;11.00;41.40;;;;;;5073446;28;20040;-74
2023/03/17 00:13:43;;;;;;;9.52;4.13;;;11.00;41.70;;;;;;5073592;28;20032;-75
2023/03/17 00:16:15;;;;;;;11.38;5.00;;;11.00;41.70;;;;;;5073621;28;20094;-74
2023/03/17 00:18:42;;;;;;;9.85;4.20;;;11.00;41.70;;;;;;5073355;28;20044;-75
2023/03/17 00:21:16;;;;;;;9.02;4.65;;;11.00;41.70;;;;;;5073416;28;20028;-75
2023/03/17 00:23:46;;;;;;;8.50;4.03;;;11.00;42.30;;;;;;5073248;28;20063;-75
2023/03/17 00:26:12;;;;;;;7.03;4.10;;;10.90;41.80;;;;;;5073896;28;20041;-74
2023/03/17 00:28:38;;;;;;;8.68;4.07;;;11.00;42.10;;;;;;5075295;28;20032;-76
2023/03/17 00:31:21;;;;;;;8.10;3.97;;;11.00;42.20;;;;;;5075100;28;20045;-73
2023/03/17 00:33:48;;;;;;;9.13;4.60;;;11.00;42.60;;;;;;5072871;28;20048;-75
2023/03/17 00:36:21;;;;;;;11.60;4.00;;;11.00;42.20;;;;;;5072588;28;20144;-75
2023/03/17 00:38:47;;;;;;;7.60;3.88;;;11.00;42.10;;;;;;5055285;28;20024;-75
2023/03/17 00:41:13;;;;;;;7.15;3.95;;;11.00;42.20;;;;;;5073055;28;20079;-74
2023/03/17 00:43:40;;;;;;;10.52;3.88;;;10.90;42.00;;;;;;5072817;28;20028;-75
2023/03/17 00:46:15;;;;;;;8.77;3.25;;;10.90;41.80;;;;;;5073025;28;20036;-76
2023/03/17 00:48:42;;;;;;;10.02;3.75;;;10.90;41.90;;;;;;5073338;28;20096;-74
2023/03/17 00:51:08;;;;;;;7.95;3.13;;;10.80;42.10;;;;;;5055044;28;20049;-74
2023/03/17 00:53:34;;;;;;;8.30;3.60;;;10.80;42.10;;;;;;5073005;28;20037;-74
2023/03/17 00:56:00;;;;;;;6.57;3.17;;;10.80;42.10;;;;;;5073055;28;20103;-75
2023/03/17 00:58:29;;;;;;;9.00;3.75;;;10.80;41.80;;;;;;5072812;28;20536;-74
2023/03/17 01:00:55;;;;;;;6.07;3.42;;;10.80;41.60;;;;;;5073104;28;20055;-73
2023/03/17 01:03:22;;;;;;;7.53;3.42;;;10.80;41.80;;;;;;5072702;28;20041;-75
2023/03/17 01:05:48;;;;;;;8.13;3.95;;;10.70;41.40;;;;;;5054912;28;20032;-75
2023/03/17 01:08:15;;;;;;;7.38;4.00;;;10.70;41.50;;;;;;5072822;28;20107;-74
2023/03/17 01:10:41;;;;;;;6.75;3.30;;;10.70;41.90;;;;;;5073069;28;20043;-74
2023/03/17 01:13:10;;;;;;;6.32;3.35;;;10.60;42.00;;;;;;5074308;28;20036;-74
2023/03/17 01:15:37;;;;;;;8.20;4.32;;;10.50;41.80;;;;;;5075331;28;20040;-75
2023/03/17 01:18:03;;;;;;;7.63;4.50;;;10.50;41.80;;;;;;5073088;28;20024;-74
2023/03/17 01:20:33;;;;;;;8.20;4.00;;;10.50;42.10;;;;;;5072358;28;20476;-75
2023/03/17 01:23:01;;;;;;;6.95;4.07;;;10.40;41.90;;;;;;5072726;28;20028;-75
2023/03/17 01:25:27;;;;;;;9.48;4.32;;;10.40;42.00;;;;;;5072655;28;20036;-74
2023/03/17 01:27:58;;;;;;;10.57;4.40;;;10.30;42.40;;;;;;5072746;28;20041;-74
2023/03/17 01:30:32;;;;;;;7.90;4.03;;;10.30;42.30;;;;;;5072690;28;20049;-75
2023/03/17 01:32:58;;;;;;;8.18;3.78;;;10.20;42.30;;;;;;5072650;28;20112;-74
2023/03/17 01:35:26;;;;;;;8.27;4.10;;;10.20;42.20;;;;;;5072345;28;20090;-75
2023/03/17 01:37:52;;;;;;;8.52;4.22;;;10.20;42.80;;;;;;5054657;28;20112;-74
2023/03/17 01:40:30;;;;;;;8.18;3.90;;;10.10;42.80;;;;;;5072472;28;20032;-74
2023/03/17 01:43:03;;;;;;;8.65;3.80;;;10.20;42.80;;;;;;5072488;28;20032;-74
2023/03/17 01:46:06;;;;;;;7.82;3.88;;;10.20;42.70;;;;;;5054519;28;20071;-73
2023/03/17 01:48:40;;;;;;;10.18;3.55;;;10.20;43.90;;;;;;5074983;28;20032;-74
2023/03/17 01:51:09;;;;;;;9.02;3.67;;;10.10;43.40;;;;;;5076127;28;20144;-74
2023/03/17 01:53:37;;;;;;;9.02;3.30;;;10.10;41.60;;;;;;5058315;28;20036;-74
2023/03/17 01:56:04;;;;;;;7.15;3.22;;;10.10;41.40;;;;;;5058383;28;20492;-74
2023/03/17 01:58:30;;;;;;;10.32;3.88;;;10.20;41.90;;;;;;5077337;28;20056;-73
2023/03/17 02:00:56;;;;;;;5.93;3.05;;;10.10;41.30;;;;;;5077489;28;20094;-73
2023/03/17 02:03:23;;;;;;;6.90;2.97;;;10.10;41.50;;;;;;5079424;28;20067;-75
2023/03/17 02:05:51;;;;;;;7.75;3.20;;;10.10;41.40;;;;;;5076128;28;20032;-73
2023/03/17 02:08:17;;;;;;;8.77;4.38;;;10.20;41.30;;;;;;5076027;28;20028;-73
2023/03/17 02:10:45;;;;;;;5.60;3.00;;;10.20;41.60;;;;;;5076077;28;20048;-74
2023/03/17 02:13:12;;;;;;;7.57;2.88;;;10.20;41.50;;;;;;5076423;28;20029;-74
2023/03/17 02:15:47;;;;;;;5.80;3.00;;;10.20;41.60;;;;;;5058030;28;20452;-74
2023/03/17 02:18:16;;;;;;;7.03;3.13;;;10.20;41.50;;;;;;5076489;28;20028;-74
2023/03/17 02:20:47;;;;;;;8.40;3.55;;;10.20;41.60;;;;;;5081803;28;20108;-74
2023/03/17 02:23:23;;;;;;;6.95;3.40;;;10.20;41.80;;;;;;5095986;28;20107;-74
2023/03/17 02:25:50;;;;;;;8.70;3.28;;;10.10;41.50;;;;;;5088397;28;20037;-74
2023/03/17 02:28:23;;;;;;;6.63;3.60;;;10.10;41.70;;;;;;5077055;28;20035;-74
2023/03/17 02:30:49;;;;;;;7.50;3.58;;;10.10;41.70;;;;;;5075528;28;20052;-75
2023/03/17 02:33:14;;;;;;;6.63;3.70;;;10.10;42.40;;;;;;5075770;28;20032;-73
2023/03/17 02:35:41;;;;;;;8.07;3.58;;;10.10;42.20;;;;;;5057564;28;20403;-75
2023/03/17 02:38:06;;;;;;;7.20;3.97;;;10.10;42.00;;;;;;5075592;28;20404;-74
2023/03/17 02:40:32;;;;;;;9.85;4.10;;;10.00;42.40;;;;;;5075418;28;20058;-74
2023/03/17 02:42:58;;;;;;;7.20;3.65;;;10.00;42.10;;;;;;5075492;28;20029;-74
2023/03/17 02:45:24;;;;;;;9.15;3.95;;;9.90;43.50;;;;;;5075821;28;20144;-73
2023/03/17 02:47:51;;;;;;;6.68;3.78;;;9.90;43.40;;;;;;5077802;28;20043;-74
2023/03/17 02:50:21;;;;;;;7.68;3.50;;;9.80;43.40;;;;;;5079411;28;20047;-74
2023/03/17 02:52:47;;;;;;;8.40;3.97;;;9.90;43.80;;;;;;5075881;28;20033;-73
2023/03/17 02:55:13;;;;;;;6.13;3.67;;;9.90;43.70;;;;;;5057549;28;20986;-74
2023/03/17 02:57:39;;;;;;;7.57;3.90;;;9.90;43.40;;;;;;5075092;28;20396;-73
2023/03/17 03:00:05;;;;;;;7.70;4.00;;;9.90;43.80;;;;;;5074494;28;20055;-74
2023/03/17 03:02:30;;;;;;;6.60;2.97;;;9.90;44.40;;;;;;5074606;28;20512;-72
2023/03/17 03:04:56;;;;;;;6.93;3.60;;;9.80;43.80;;;;;;5074695;28;20032;-74
2023/03/17 03:07:22;;;;;;;9.27;3.42;;;9.80;43.90;;;;;;5074719;28;20533;-74
2023/03/17 03:09:48;;;;;;;7.20;3.20;;;9.80;44.10;;;;;;5074655;28;20047;-74
2023/03/17 03:12:14;;;;;;;6.97;3.28;;;9.70;44.00;;;;;;5075100;28;20027;-75
2023/03/17 03:14:39;;;;;;;8.43;3.53;;;9.70;43.90;;;;;;5074773;28;20044;-73
2023/03/17 03:17:05;;;;;;;6.28;3.28;;;9.60;44.10;;;;;;5074662;28;20035;-74
2023/03/17 03:19:31;;;;;;;7.72;3.35;;;9.60;44.30;;;;;;5074745;28;20508;-74
2023/03/17 03:21:57;;;;;;;6.72;3.70;;;9.60;44.50;;;;;;5074487;28;20047;-73
2023/03/17 03:24:23;;;;;;;6.88;3.38;;;9.60;44.50;;;;;;5074667;28;20117;-74
2023/03/17 03:26:48;;;;;;;8.30;3.85;;;9.50;44.50;;;;;;5074948;28;20037;-75
2023/03/17 03:29:15;;;;;;;11.35;4.20;;;9.50;44.60;;;;;;5074917;28;20106;-74
2023/03/17 03:31:41;;;;;;;11.27;4.18;;;9.50;45.00;;;;;;5074642;28;20072;-74
2023/03/17 03:34:07;;;;;;;10.48;3.78;;;9.40;45.30;;;;;;5074993;28;20047;-74
2023/03/17 03:36:32;;;;;;;9.35;3.88;;;9.30;45.80;;;;;;5077194;28;20041;-74
2023/03/17 03:38:59;;;;;;;8.35;4.07;;;9.30;45.50;;;;;;5075898;28;20115;-74
2023/03/17 03:41:26;;;;;;;13.13;3.55;;;9.30;45.70;;;;;;5074356;28;20037;-74
2023/03/17 03:43:51;;;;;;;10.88;3.90;;;9.30;45.80;;;;;;5074500;28;20040;-75
2023/03/17 03:46:17;;;;;;;10.23;3.53;;;9.40;45.60;;;;;;5056017;28;20344;-73
2023/03/17 03:48:43;;;;;;;7.35;3.50;;;9.40;45.60;;;;;;5074259;28;20025;-74
2023/03/17 03:51:09;;;;;;;7.03;3.35;;;9.30;45.20;;;;;;5074091;28;20056;-75
2023/03/17 03:53:35;;;;;;;7.53;3.58;;;9.30;45.40;;;;;;5074148;28;20491;-75
2023/03/17 03:56:01;;;;;;;6.25;2.85;;;9.30;45.20;;;;;;5074264;28;20043;-74
2023/03/17 03:58:27;;;;;;;5.50;2.85;;;9.30;45.10;;;;;;5074170;28;20066;-74
2023/03/17 04:00:53;;;;;;;7.65;3.17;;;9.20;45.30;;;;;;5073970;28;20063;-74
2023/03/17 04:03:18;;;;;;;8.65;3.20;;;9.20;45.20;;;;;;5074060;28;20052;-74
2023/03/17 04:05:44;;;;;;;7.93;3.10;;;9.20;44.80;;;;;;5074405;28;20040;-74
2023/03/17 04:08:10;;;;;;;7.32;3.17;;;9.20;45.10;;;;;;5074346;28;20059;-74
2023/03/17 04:10:36;;;;;;;7.50;3.25;;;9.20;44.70;;;;;;5055347;28;20045;-74
2023/03/17 04:13:02;;;;;;;4.95;2.47;;;9.20;44.60;;;;;;5055860;28;20036;-74
2023/03/17 04:15:28;;;;;;;6.05;2.47;;;9.20;45.60;;;;;;5073519;28;20131;-73
2023/03/17 04:17:54;;;;;;;7.20;2.78;;;9.10;45.40;;;;;;5056264;28;20123;-74
2023/03/17 04:20:20;;;;;;;6.45;2.30;;;9.00;45.20;;;;;;5073866;28;20463;-75
2023/03/17 04:22:46;;;;;;;10.05;2.47;;;9.00;45.20;;;;;;5074632;28;20488;-73
2023/03/17 04:25:13;;;;;;;6.90;2.30;;;9.10;45.10;;;;;;5076067;28;20028;-74
2023/03/17 04:27:40;;;;;;;4.65;2.28;;;9.00;44.60;;;;;;5073484;28;20032;-74
2023/03/17 04:30:09;;;;;;;3.78;2.00;;;9.00;45.40;;;;;;5055544;28;20033;-73
2023/03/17 04:32:35;;;;;;;9.43;2.78;;;8.90;45.00;;;;;;5073462;28;20037;-74
2023/03/17 04:35:01;;;;;;;4.70;2.15;;;8.90;44.70;;;;;;5073106;28;20032;-74
2023/03/17 04:37:26;;;;;;;5.93;2.13;;;8.80;44.80;;;;;;5073333;28;20029;-74
2023/03/17 04:39:53;;;;;;;4.28;2.08;;;8.80;44.80;;;;;;5072938;28;20036;-73
2023/03/17 04:42:19;;;;;;;5.90;2.58;;;8.80;44.80;;;;;;5073166;28;20094;-75
2023/03/17 04:44:45;;;;;;;4.68;2.30;;;8.80;44.40;;;;;;5055426;28;20036;-74
2023/03/17 04:47:11;;;;;;;6.18;2.47;;;8.80;44.80;;;;;;5073255;28;20040;-74
2023/03/17 04:49:37;;;;;;;6.65;2.10;;;8.80;44.80;;;;;;5072775;28;20044;-73
2023/03/17 04:52:02;;;;;;;5.22;2.03;;;8.90;44.80;;;;;;5072954;28;20029;-74
2023/03/17 04:54:28;;;;;;;6.75;2.63;;;8.90;44.50;;;;;;5072752;28;20109;-75
2023/03/17 04:56:55;;;;;;;6.18;3.08;;;8.90;44.60;;;;;;5072871;28;20156;-74
2023/03/17 04:59:20;;;;;;;6.40;2.95;;;8.90;44.70;;;;;;5072884;28;20021;-76
2023/03/17 05:01:46;;;;;;;7.82;2.97;;;8.90;44.50;;;;;;5054530;28;20036;-74
2023/03/17 05:04:12;;;;;;;7.55;2.80;;;8.90;44.80;;;;;;5072486;28;20476;-73
2023/03/17 05:06:38;;;;;;;8.80;2.97;;;8.80;44.40;;;;;;5072927;28;20040;-75
2023/03/17 05:09:04;;;;;;;7.55;3.40;;;8.80;44.00;;;;;;5073276;28;20044;-74
2023/03/17 05:11:31;;;;;;;5.13;2.75;;;8.90;43.90;;;;;;5072949;28;20052;-74
2023/03/17 05:13:56;;;;;;;5.85;2.80;;;8.80;43.90;;;;;;5075281;28;20024;-74
2023/03/17 05:16:22;;;;;;;6.90;2.63;;;8.80;44.40;;;;;;5073755;28;20067;-75
2023/03/17 05:18:48;;;;;;;6.32;2.67;;;8.80;44.20;;;;;;5072706;28;20099;-74
2023/03/17 05:21:14;;;;;;;5.47;2.60;;;8.80;44.20;;;;;;5054578;28;20148;-73
2023/03/17 05:23:40;;;;;;;5.72;2.60;;;8.70;43.90;;;;;;5072834;28;20035;-74
2023/03/17 05:26:06;;;;;;;5.95;2.70;;;8.70;44.50;;;;;;5072706;28;20025;-73
2023/03/17 05:28:32;;;;;;;8.02;3.28;;;8.70;44.70;;;;;;5072282;28;20036;-75
2023/03/17 05:30:58;;;;;;;7.45;3.15;;;8.80;44.60;;;;;;5072624;28;20048;-74
2023/03/17 05:33:25;;;;;;;7.97;3.33;;;8.80;44.40;;;;;;5072411;28;20478;-75
2023/03/17 05:35:51;;;;;;;7.07;2.53;;;8.80;44.40;;;;;;5076134;28;20028;-75
2023/03/17 05:38:17;;;;;;;7.22;3.25;;;8.80;44.80;;;;;;5095705;28;20029;-74
2023/03/17 05:40:43;;;;;;;5.97;2.80;;;8.80;44.20;;;;;;5095988;28;20040;-75
2023/03/17 05:43:09;;;;;;;4.60;2.38;;;8.70;44.40;;;;;;5074024;28;20099;-74
2023/03/17 05:45:35;;;;;;;9.10;2.90;;;8.80;44.40;;;;;;5072698;28;20044;-75
2023/03/17 05:48:01;;;;;;;6.80;2.50;;;8.90;44.40;;;;;;5054279;28;20032;-75
2023/03/17 05:50:27;;;;;;;5.85;2.47;;;8.80;43.90;;;;;;5072538;28;20095;-75
2023/03/17 05:52:53;;;;;;;7.75;2.67;;;8.80;44.50;;;;;;5054453;28;20029;-75
2023/03/17 05:55:19;;;;;;;8.10;2.63;;;8.80;44.70;;;;;;5072068;28;20044;-75
2023/03/17 05:57:44;;;;;;;5.57;2.28;;;8.70;44.60;;;;;;5055035;28;20468;-76
2023/03/17 06:00:12;;;;;;;7.78;2.90;;;8.70;44.80;;;;;;5075133;28;20068;-75
2023/03/17 22:35:19;;;;;;;22.88;12.77;;;12.60;63.20;;;;;;5049449;28;21244;-80
2023/03/17 22:37:46;;;;;;;19.98;12.77;;;12.60;62.70;;;;;;5056829;28;20411;-81
2023/03/17 22:40:12;;;;;;;21.95;12.65;;;12.60;62.50;;;;;;5077569;28;20032;-83
2023/03/17 22:42:37;;;;;;;25.42;13.73;;;12.60;62.90;;;;;;5075613;28;20474;-83
2023/03/17 22:45:03;;;;;;;21.02;13.45;;;12.60;62.80;;;;;;5072723;28;20020;-84
2023/03/17 22:47:29;;;;;;;22.48;13.48;;;12.60;63.40;;;;;;5078708;28;20125;-81
2023/03/17 22:49:55;;;;;;;20.58;12.93;;;12.60;63.00;;;;;;5085325;28;20099;-83
2023/03/17 22:52:21;;;;;;;23.02;14.07;;;12.50;63.40;;;;;;5082683;28;20068;-82
2023/03/17 22:54:46;;;;;;;24.92;13.52;;;12.50;63.40;;;;;;5078531;28;20057;-83
2023/03/17 22:57:12;;;;;;;23.02;13.90;;;12.50;63.20;;;;;;5079304;28;20025;-83
2023/03/17 22:59:38;;;;;;;25.90;15.20;;;12.50;63.40;;;;;;5076960;28;20480;-82
2023/03/17 23:02:03;;;;;;;30.90;15.82;;;12.40;63.40;;;;;;5085327;28;20028;-82
2023/03/17 23:04:29;;;;;;;25.67;15.27;;;12.40;63.50;;;;;;5076340;28;20093;-82
2023/03/17 23:06:57;;;;;;;27.13;15.00;;;12.40;63.80;;;;;;5075169;28;20095;-83
2023/03/17 23:09:23;;;;;;;24.20;16.27;;;12.40;63.70;;;;;;5075815;28;20079;-83
2023/03/17 23:11:49;;;;;;;22.58;15.77;;;12.50;63.90;;;;;;5085526;28;20151;-83
2023/03/17 23:14:15;;;;;;;27.55;16.13;;;12.50;64.30;;;;;;5078392;28;20055;-83
2023/03/17 23:16:41;;;;;;;27.05;16.58;;;12.40;64.20;;;;;;5075305;28;20039;-84
2023/03/17 23:19:07;;;;;;;27.60;17.13;;;12.50;64.00;;;;;;5075909;28;20068;-83
2023/03/17 23:21:36;;;;;;;26.67;15.70;;;12.40;63.90;;;;;;5074849;28;20440;-83
2023/03/17 23:24:03;;;;;;;25.25;15.88;;;12.40;63.80;;;;;;5075140;28;20039;-82
2023/03/17 23:26:29;;;;;;;26.45;16.75;;;12.40;63.80;;;;;;5075570;28;20032;-83
2023/03/17 23:28:55;;;;;;;27.23;17.33;;;12.40;64.00;;;;;;5076748;28;20032;-82
2023/03/17 23:31:21;;;;;;;27.48;17.25;;;12.40;63.80;;;;;;5079682;28;20043;-83
2023/03/17 23:33:48;;;;;;;40.08;18.20;;;12.30;64.20;;;;;;5083451;28;20032;-83
2023/03/17 23:36:15;;;;;;;28.20;16.58;;;12.30;64.30;;;;;;5093666;28;20371;-82
2023/03/17 23:38:42;;;;;;;29.10;17.60;;;12.30;64.40;;;;;;5093262;28;20025;-84
2023/03/17 23:41:09;;;;;;;24.05;16.50;;;12.20;64.30;;;;;;5080500;28;20032;-83
2023/03/17 23:43:34;;;;;;;24.17;16.52;;;12.10;64.20;;;;;;5077971;28;20043;-83
2023/03/17 23:46:00;;;;;;;23.08;15.82;;;12.00;64.60;;;;;;5076420;28;20107;-81
2023/03/17 23:48:27;;;;;;;22.88;16.02;;;11.90;64.90;;;;;;5075532;28;20086;-83
2023/03/17 23:50:53;;;;;;;23.63;15.98;;;11.80;65.00;;;;;;5074073;28;20045;-83
2023/03/17 23:53:20;;;;;;;29.30;15.40;;;11.70;65.10;;;;;;5076858;28;20111;-82
2023/03/17 23:55:46;;;;;;;24.23;14.50;;;11.70;65.60;;;;;;5074295;28;20037;-82
2023/03/17 23:58:13;;;;;;;25.40;14.50;;;11.70;65.60;;;;;;5073457;28;20032;-83
